createdAt,value
2023-01-17T00:01:23.170Z,1.85
2023-01-17T00:11:31.152Z,2.16
2023-01-17T00:21:39.155Z,2.11
2023-01-17T00:31:47.146Z,2.11
2023-01-17T00:41:55.161Z,1.99
2023-01-17T00:52:03.125Z,2.12
2023-01-17T01:02:11.248Z,1.79
2023-01-17T01:12:19.195Z,1.52
2023-01-17T01:22:27.080Z,0.8
2023-01-17T01:32:34.967Z,0.45
2023-01-17T01:42:42.978Z,0.21
2023-01-17T01:52:51.179Z,0.23
2023-01-17T02:02:59.213Z,0.23
2023-01-17T02:13:07.147Z,0.22
2023-01-17T02:23:15.268Z,0.22
2023-01-17T02:33:23.162Z,0.28
2023-01-17T02:43:31.040Z,0.18
2023-01-17T02:53:39.762Z,0.16
2023-01-17T03:03:47.784Z,0.37
2023-01-17T03:13:55.765Z,0.16
2023-01-17T03:24:03.659Z,0.35
2023-01-17T03:34:11.649Z,0.2
2023-01-17T03:44:19.782Z,0.32
2023-01-17T03:54:27.697Z,0.11
2023-01-17T04:04:35.597Z,0.14
2023-01-17T04:14:43.560Z,0.28
2023-01-17T04:24:51.494Z,0.21
2023-01-17T04:34:59.398Z,0.22
2023-01-17T04:45:07.204Z,0.2
2023-01-17T04:55:15.378Z,0.11
2023-01-17T05:05:23.370Z,0.09
2023-01-17T05:15:31.308Z,0.11
2023-01-17T05:25:39.216Z,0.26
2023-01-17T05:35:47.119Z,0.11
2023-01-17T05:45:55.172Z,0.1
2023-01-17T05:56:03.205Z,0.11
2023-01-17T06:06:12.060Z,0.08
2023-01-17T06:16:22.775Z,0.17
2023-01-17T06:26:20.843Z,0.43
2023-01-17T06:36:29.397Z,0.64
2023-01-17T06:46:38.635Z,1.05
2023-01-17T06:56:49.544Z,2.99
2023-01-17T07:06:57.576Z,2.6
2023-01-17T07:17:05.680Z,0.74
2023-01-17T07:27:15.504Z,0.78
2023-01-17T07:37:23.387Z,0.25
2023-01-17T07:47:32.736Z,0.23
2023-01-17T07:57:40.876Z,0.23
2023-01-17T08:07:49.193Z,1.03
2023-01-17T08:17:57.379Z,0.6
2023-01-17T08:28:05.468Z,0.63
2023-01-17T08:38:13.638Z,0.39
2023-01-17T08:48:21.753Z,0.32
2023-01-17T08:58:30.648Z,0.31
2023-01-17T09:08:37.489Z,0.29
2023-01-17T09:18:45.694Z,0.45
2023-01-17T09:28:53.991Z,0.3
2023-01-17T09:39:03.664Z,0.56
2023-01-17T09:49:11.877Z,0.31
2023-01-17T09:59:19.475Z,0.3
2023-01-17T10:09:27.501Z,0.37
2023-01-17T10:19:35.560Z,0.28
2023-01-17T10:29:44.267Z,0.74
2023-01-17T10:39:52.485Z,0.39
2023-01-17T10:50:00.736Z,1.67
2023-01-17T11:00:09.132Z,0.32
2023-01-17T11:10:17.724Z,0.43
2023-01-17T11:20:26.284Z,0.46
2023-01-17T11:30:34.232Z,0.38
2023-01-17T11:40:42.459Z,0.74
2023-01-17T11:50:50.378Z,0.39
2023-01-17T12:00:58.238Z,0.38
2023-01-17T12:11:06.180Z,0.6
2023-01-17T12:21:14.150Z,0.36
2023-01-17T12:31:22.145Z,0.31
2023-01-17T12:41:29.943Z,0.64
2023-01-17T12:51:38.105Z,0.47
2023-01-17T13:01:46.219Z,0.26
2023-01-17T13:11:54.081Z,0.34
2023-01-17T13:22:01.969Z,0.76
2023-01-17T13:32:09.955Z,0.29
2023-01-17T13:42:23.256Z,0.29
2023-01-17T13:52:24.281Z,0.36
2023-01-17T14:02:22.286Z,0.51
2023-01-17T14:12:31.320Z,0.91
2023-01-17T14:22:39.140Z,0.43
2023-01-17T14:32:47.218Z,0.27
2023-01-17T14:43:00.715Z,0.24
2023-01-17T15:03:01.141Z,0.23
2023-01-17T15:13:10.304Z,0.33
2023-01-17T15:23:19.031Z,0.34
2023-01-17T15:33:27.711Z,0.38
2023-01-17T15:43:35.989Z,0.37
2023-01-17T15:53:44.533Z,0.59
2023-01-17T16:04:10.514Z,0.3
2023-01-17T16:14:06.084Z,0.3
2023-01-17T16:24:11.521Z,0.27
2023-01-17T16:44:23.623Z,0.3
2023-01-17T16:54:34.042Z,0.51
2023-01-17T17:05:26.255Z,0.38
2023-01-17T17:14:30.200Z,0.47
2023-01-17T17:24:32.114Z,0.39
2023-01-17T17:34:34.243Z,0.57
2023-01-17T17:44:34.186Z,0.48
2023-01-17T17:54:42.870Z,0.48
2023-01-17T18:04:47.607Z,0.63
2023-01-17T18:15:06.906Z,0.47
2023-01-17T18:34:54.635Z,0.7
2023-01-17T18:55:01.317Z,0.4
2023-01-17T19:05:24.493Z,0.56
2023-01-17T19:15:17.243Z,0.53
2023-01-17T19:25:08.496Z,1.17
2023-01-17T19:35:15.159Z,0.64
2023-01-17T19:45:15.592Z,0.61
2023-01-17T19:55:18.868Z,0.43
2023-01-17T20:05:18.369Z,0.64
2023-01-17T20:15:30.387Z,0.43
2023-01-17T20:25:32.411Z,0.73
2023-01-17T20:35:39.801Z,0.53
2023-01-17T20:45:38.807Z,0.63
2023-01-17T20:55:47.016Z,0.51
2023-01-17T21:05:55.240Z,0.3
2023-01-17T21:16:05.901Z,1.18
2023-01-17T21:26:06.340Z,0.5
2023-01-17T21:36:05.806Z,0.73
2023-01-17T21:46:15.260Z,0.53
2023-01-17T21:56:23.252Z,0.67
2023-01-17T22:06:31.272Z,0.78
2023-01-17T22:16:39.755Z,0.66
2023-01-17T22:26:47.225Z,0.54
2023-01-17T22:36:55.232Z,0.62
2023-01-17T22:47:03.303Z,0.47
2023-01-17T22:57:11.502Z,0.82
2023-01-17T23:07:19.413Z,0.75
2023-01-17T23:17:27.801Z,0.38
2023-01-17T23:27:38.180Z,0.25
2023-01-17T23:37:36.439Z,0.29
2023-01-17T23:47:44.902Z,0.31
2023-01-17T23:57:52.941Z,0.16
